createdAt,value
2022-09-20T14:55:57.781Z,58.10
2022-09-20T14:58:26.595Z,58.13
2022-09-20T15:01:05.270Z,58.42
2022-09-20T15:03:37.408Z,60.32
2022-09-20T15:06:06.701Z,59.25
2022-09-20T15:08:35.565Z,58.68
2022-09-20T15:11:03.959Z,58.30
2022-09-20T15:13:32.146Z,57.75
2022-09-20T15:16:00.282Z,61.54
2022-09-20T15:18:34.421Z,61.18
2022-09-20T15:21:04.323Z,61.04
2022-09-20T15:23:33.116Z,62.18
2022-09-20T15:26:02.156Z,63.88
2022-09-20T15:28:32.765Z,64.08
2022-09-20T15:31:00.648Z,64.41
2022-09-20T15:33:30.420Z,64.71
2022-09-20T15:36:00.062Z,63.48
2022-09-20T15:38:28.613Z,65.14
2022-09-20T15:40:56.624Z,62.87
2022-09-20T15:43:28.051Z,62.93
2022-09-20T15:46:21.168Z,64.82
2022-09-20T15:48:49.381Z,66.51
2022-09-20T15:51:18.921Z,65.93
2022-09-20T15:53:56.944Z,66.86
2022-09-20T15:56:37.310Z,69.19
2022-09-20T15:59:11.078Z,68.27
2022-09-20T16:01:41.309Z,68.75
2022-09-20T16:04:15.464Z,68.42
2022-09-20T16:06:45.131Z,68.73
2022-09-20T16:09:14.126Z,68.17
2022-09-20T16:11:42.290Z,67.49
2022-09-20T16:14:10.322Z,67.87
2022-09-20T16:16:40.614Z,68.78
2022-09-20T16:19:18.131Z,70.79
2022-09-20T16:21:53.581Z,72.21
2022-09-20T16:24:26.346Z,69.89
2022-09-20T16:26:56.047Z,70.42
2022-09-20T16:29:25.976Z,69.74
2022-09-20T16:31:55.584Z,70.28
2022-09-20T16:34:32.610Z,70.21
2022-09-20T16:37:03.059Z,68.63
2022-09-20T16:39:31.607Z,68.72
2022-09-20T16:42:04.992Z,68.16
2022-09-20T16:44:37.449Z,68.71
2022-09-20T16:47:08.576Z,70.47
2022-09-20T16:49:37.401Z,71.98
2022-09-20T16:52:06.046Z,71.60
2022-09-20T16:54:34.900Z,73.50
2022-09-20T16:57:05.846Z,74.17
2022-09-20T16:59:33.987Z,73.74
2022-09-20T17:02:02.729Z,74.32
2022-09-20T17:04:31.660Z,73.12
2022-09-20T17:07:04.867Z,72.90
2022-09-20T17:09:37.846Z,72.91
2022-09-20T17:12:10.844Z,73.08
2022-09-20T17:14:46.389Z,74.68
2022-09-20T17:17:14.316Z,75.78
2022-09-20T17:19:43.039Z,76.02
2022-09-20T17:22:11.837Z,75.34
2022-09-20T17:24:39.773Z,74.02
2022-09-20T17:27:08.706Z,76.75
2022-09-20T17:29:37.193Z,75.62
2022-09-20T17:32:05.289Z,75.54
2022-09-20T17:34:34.388Z,74.68
2022-09-20T17:37:13.046Z,75.40
2022-09-20T17:39:44.503Z,74.17
2022-09-20T17:42:13.333Z,75.17
2022-09-20T17:44:42.054Z,75.05
2022-09-20T17:47:10.834Z,74.87
2022-09-20T17:49:40.822Z,75.02
2022-09-20T17:52:10.184Z,74.10
2022-09-20T17:54:38.497Z,75.30
2022-09-20T17:57:23.004Z,75.21
2022-09-20T17:59:51.486Z,75.58
2022-09-20T18:02:21.296Z,73.35
2022-09-20T18:04:52.124Z,76.11
2022-09-20T18:07:20.470Z,74.31
2022-09-20T18:09:48.992Z,75.51
2022-09-20T18:12:19.873Z,75.69
2022-09-20T18:14:49.562Z,77.27
2022-09-20T18:17:17.826Z,74.91
2022-09-20T18:19:45.938Z,73.43
2022-09-20T18:22:14.233Z,75.24
2022-09-20T18:24:42.686Z,74.31
2022-09-20T18:27:10.784Z,74.83
2022-09-20T18:29:39.354Z,76.11
2022-09-20T18:32:08.946Z,74.92
2022-09-20T18:34:36.844Z,73.24
2022-09-20T18:37:10.078Z,74.01
2022-09-20T18:39:43.381Z,74.35
2022-09-20T18:42:11.893Z,73.47
2022-09-20T18:44:43.389Z,72.15
2022-09-20T18:47:11.878Z,72.26
2022-09-20T18:49:39.678Z,73.03
2022-09-20T18:52:09.414Z,72.39
2022-09-20T18:54:37.494Z,71.88
2022-09-20T18:57:10.141Z,71.55
2022-09-20T18:59:40.278Z,71.43
2022-09-20T19:02:25.408Z,71.49
2022-09-20T19:05:17.707Z,74.38
2022-09-20T19:07:53.565Z,73.59
2022-09-20T19:10:23.424Z,75.78
2022-09-20T19:13:00.098Z,74.80
2022-09-20T19:15:52.787Z,75.05
2022-09-20T19:18:49.285Z,75.56
2022-09-20T19:21:24.416Z,75.94
2022-09-20T19:24:10.920Z,75.06
2022-09-20T19:26:40.227Z,74.76
2022-09-20T19:29:23.483Z,74.89
2022-09-20T19:31:55.883Z,74.87
2022-09-20T19:34:26.891Z,76.11
2022-09-20T19:37:08.541Z,76.93
2022-09-20T19:39:43.426Z,78.20
2022-09-20T19:42:36.440Z,77.87
2022-09-20T19:45:19.797Z,78.05
2022-09-20T19:48:07.475Z,78.13
2022-09-20T19:50:46.905Z,77.94
2022-09-20T19:53:17.707Z,78.82
2022-09-20T19:55:53.780Z,77.84
2022-09-20T19:58:22.902Z,78.10
2022-09-20T20:00:51.236Z,76.79
2022-09-20T20:03:20.386Z,77.22
2022-09-20T20:06:02.422Z,78.98
2022-09-20T20:08:54.902Z,77.05
2022-09-20T20:11:44.214Z,76.91
2022-09-20T20:14:53.703Z,78.25
2022-09-20T20:17:48.401Z,76.90
2022-09-20T20:20:27.390Z,79.95
2022-09-20T20:23:19.800Z,77.83
2022-09-20T20:26:09.283Z,78.39
2022-09-20T20:28:38.630Z,77.35
2022-09-20T20:31:08.855Z,78.19
2022-09-20T20:33:36.883Z,79.26
2022-09-20T20:36:09.336Z,81.09
2022-09-20T20:38:39.539Z,80.63
2022-09-20T20:41:08.848Z,81.86
2022-09-20T20:43:39.446Z,79.35
2022-09-20T20:46:14.423Z,77.76
2022-09-20T20:48:42.980Z,79.42
2022-09-20T20:51:16.679Z,79.18
2022-09-20T20:53:50.167Z,79.56
2022-09-20T20:56:19.265Z,80.71
2022-09-20T20:58:49.061Z,78.79
2022-09-20T21:01:22.299Z,80.73
2022-09-20T21:03:54.695Z,78.51
2022-09-20T21:06:25.207Z,79.13
2022-09-20T21:08:53.590Z,78.95
2022-09-20T21:11:23.610Z,79.38
2022-09-20T21:13:52.442Z,78.79
2022-09-20T21:16:23.022Z,82.09
2022-09-20T21:18:51.322Z,78.84
2022-09-20T21:21:33.400Z,82.13
2022-09-20T21:24:06.359Z,81.75
2022-09-20T21:26:35.646Z,82.19
2022-09-20T21:29:10.204Z,82.49
2022-09-20T21:31:40.419Z,80.32
2022-09-20T21:34:10.128Z,79.48
2022-09-20T21:36:39.473Z,79.93
2022-09-20T21:39:07.440Z,80.59
2022-09-20T21:41:37.635Z,82.27
2022-09-20T21:44:06.711Z,82.54
2022-09-20T21:46:40.450Z,81.42
2022-09-20T21:49:11.480Z,82.64
2022-09-20T21:51:42.093Z,81.05
2022-09-20T21:54:11.138Z,81.81
2022-09-20T21:56:40.441Z,82.34
2022-09-20T21:59:08.446Z,82.22
2022-09-20T22:01:38.866Z,81.64
2022-09-20T22:04:11.838Z,80.56
2022-09-20T22:06:41.563Z,80.90
2022-09-20T22:09:12.066Z,79.62
2022-09-20T22:11:42.162Z,81.07
2022-09-20T22:14:11.770Z,81.85
2022-09-20T22:16:41.175Z,83.46
2022-09-20T22:19:10.374Z,81.19
2022-09-20T22:21:41.117Z,78.95
2022-09-20T22:24:10.774Z,80.21
2022-09-20T22:26:41.700Z,80.84
2022-09-20T22:29:09.815Z,81.68
2022-09-20T22:31:44.837Z,81.62
2022-09-20T22:34:23.734Z,81.63
2022-09-20T22:36:52.304Z,81.41
2022-09-20T22:39:20.227Z,81.56
2022-09-20T22:41:50.656Z,79.77
2022-09-20T22:44:18.486Z,81.91
2022-09-20T22:46:46.671Z,81.89
2022-09-20T22:49:14.470Z,85.38
2022-09-20T22:51:42.242Z,81.29
2022-09-20T22:54:11.997Z,81.44
2022-09-20T22:56:41.567Z,81.01
2022-09-20T22:59:13.966Z,85.00
2022-09-20T23:01:46.442Z,82.85
2022-09-20T23:04:17.763Z,84.57
2022-09-20T23:06:48.163Z,82.03
2022-09-20T23:09:18.055Z,86.31
2022-09-20T23:11:46.906Z,85.56
2022-09-20T23:14:17.559Z,86.08
2022-09-20T23:16:46.111Z,83.86
2022-09-20T23:19:14.875Z,83.95
2022-09-20T23:21:43.720Z,84.86
2022-09-20T23:24:13.887Z,84.07
2022-09-20T23:26:43.021Z,82.09
2022-09-20T23:29:12.626Z,81.92
2022-09-20T23:31:45.752Z,82.64
2022-09-20T23:34:15.684Z,80.26
2022-09-20T23:36:44.243Z,83.14
2022-09-20T23:39:12.598Z,81.53
2022-09-20T23:41:41.574Z,79.84
2022-09-20T23:44:11.781Z,79.22
2022-09-20T23:46:39.717Z,81.80
2022-09-20T23:49:09.364Z,82.62
2022-09-20T23:51:37.735Z,85.09
2022-09-20T23:54:06.004Z,82.24
2022-09-20T23:56:34.058Z,82.84
2022-09-20T23:59:01.917Z,84.07
